Terminal Aerodrome Forecast
Issued by NWS Wilmington, OH

Home | Current Version | Previous Version | Text Only | Print | Product List | Glossary On
Versions: 1 2 3 4 5 6 7 8 9 10 11 12 13 14 15 16 17 18 19 20 21 22 23 24 25
059
FTUS41 KILN 242320
TAFCVG
TAF
KCVG 242320Z 2500/2606 23004KT P6SM SCT045
     FM251300 24008KT P6SM BKN150
     FM251600 25009KT P6SM VCTS SCT040CB
     FM252000 30007KT P6SM SCT050 SCT100
     FM260100 VRB03KT P6SM SCT250=

USA.gov is the U.S. government's official web portal to all federal, state and local government web resources and services.